sensor_id;sensor_type;location;lat;lon;timestamp;P1;durP1;ratioP1;P2;durP2;ratioP2
67861;SDS011;54665;51.462;6.698;2023-04-03T00:01:05;23.02;;;9.23;;
67861;SDS011;54665;51.462;6.698;2023-04-03T00:03:31;24.70;;;9.47;;
67861;SDS011;54665;51.462;6.698;2023-04-03T00:05:56;22.00;;;9.07;;
67861;SDS011;54665;51.462;6.698;2023-04-03T00:08:22;21.17;;;8.60;;
67861;SDS011;54665;51.462;6.698;2023-04-03T00:10:47;20.57;;;8.47;;
67861;SDS011;54665;51.462;6.698;2023-04-03T00:13:13;22.93;;;8.83;;
67861;SDS011;54665;51.462;6.698;2023-04-03T00:15:39;23.40;;;8.73;;
67861;SDS011;54665;51.462;6.698;2023-04-03T00:18:05;24.90;;;8.93;;
67861;SDS011;54665;51.462;6.698;2023-04-03T00:20:32;22.93;;;8.57;;
67861;SDS011;54665;51.462;6.698;2023-04-03T00:22:58;28.00;;;9.07;;
67861;SDS011;54665;51.462;6.698;2023-04-03T00:25:23;19.70;;;8.32;;
67861;SDS011;54665;51.462;6.698;2023-04-03T00:27:49;23.90;;;9.33;;
67861;SDS011;54665;51.462;6.698;2023-04-03T00:30:15;22.35;;;8.85;;
67861;SDS011;54665;51.462;6.698;2023-04-03T00:32:43;22.75;;;8.98;;
67861;SDS011;54665;51.462;6.698;2023-04-03T00:35:09;22.27;;;9.23;;
67861;SDS011;54665;51.462;6.698;2023-04-03T00:37:35;24.10;;;9.40;;
67861;SDS011;54665;51.462;6.698;2023-04-03T00:40:01;25.48;;;10.25;;
67861;SDS011;54665;51.462;6.698;2023-04-03T00:42:27;24.90;;;9.90;;
67861;SDS011;54665;51.462;6.698;2023-04-03T00:47:21;26.48;;;9.68;;
67861;SDS011;54665;51.462;6.698;2023-04-03T00:49:47;21.93;;;9.03;;
67861;SDS011;54665;51.462;6.698;2023-04-03T00:52:14;24.98;;;9.48;;
67861;SDS011;54665;51.462;6.698;2023-04-03T00:54:42;24.15;;;10.68;;
67861;SDS011;54665;51.462;6.698;2023-04-03T00:57:09;23.20;;;9.52;;
67861;SDS011;54665;51.462;6.698;2023-04-03T00:59:38;25.08;;;9.95;;
67861;SDS011;54665;51.462;6.698;2023-04-03T01:02:09;23.67;;;10.03;;
67861;SDS011;54665;51.462;6.698;2023-04-03T01:04:41;24.20;;;9.65;;
67861;SDS011;54665;51.462;6.698;2023-04-03T01:07:15;23.02;;;9.02;;
67861;SDS011;54665;51.462;6.698;2023-04-03T01:09:43;23.77;;;9.43;;
67861;SDS011;54665;51.462;6.698;2023-04-03T01:12:21;24.55;;;9.38;;
67861;SDS011;54665;51.462;6.698;2023-04-03T01:14:55;22.83;;;9.18;;
67861;SDS011;54665;51.462;6.698;2023-04-03T01:20:02;25.73;;;9.32;;
67861;SDS011;54665;51.462;6.698;2023-04-03T01:25:38;21.48;;;8.82;;
67861;SDS011;54665;51.462;6.698;2023-04-03T01:28:08;22.08;;;9.07;;
67861;SDS011;54665;51.462;6.698;2023-04-03T01:30:41;18.95;;;6.90;;
67861;SDS011;54665;51.462;6.698;2023-04-03T01:33:14;19.48;;;7.43;;
67861;SDS011;54665;51.462;6.698;2023-04-03T01:35:39;24.80;;;9.20;;
67861;SDS011;54665;51.462;6.698;2023-04-03T01:38:05;16.73;;;7.47;;
67861;SDS011;54665;51.462;6.698;2023-04-03T01:40:31;19.30;;;7.77;;
67861;SDS011;54665;51.462;6.698;2023-04-03T01:42:57;18.60;;;8.13;;
67861;SDS011;54665;51.462;6.698;2023-04-03T01:45:22;16.53;;;6.63;;
67861;SDS011;54665;51.462;6.698;2023-04-03T01:47:48;14.67;;;6.50;;
67861;SDS011;54665;51.462;6.698;2023-04-03T01:50:13;18.58;;;7.25;;
67861;SDS011;54665;51.462;6.698;2023-04-03T01:52:39;13.83;;;5.93;;
67861;SDS011;54665;51.462;6.698;2023-04-03T01:55:05;12.23;;;5.47;;
67861;SDS011;54665;51.462;6.698;2023-04-03T01:57:31;15.95;;;5.47;;
67861;SDS011;54665;51.462;6.698;2023-04-03T01:59:56;9.77;;;4.40;;
67861;SDS011;54665;51.462;6.698;2023-04-03T02:02:22;10.13;;;4.13;;
67861;SDS011;54665;51.462;6.698;2023-04-03T02:04:48;8.87;;;3.90;;
67861;SDS011;54665;51.462;6.698;2023-04-03T02:07:13;10.32;;;4.00;;
67861;SDS011;54665;51.462;6.698;2023-04-03T02:09:39;11.37;;;3.60;;
67861;SDS011;54665;51.462;6.698;2023-04-03T02:12:04;10.75;;;3.47;;
67861;SDS011;54665;51.462;6.698;2023-04-03T02:14:31;7.00;;;3.00;;
67861;SDS011;54665;51.462;6.698;2023-04-03T02:16:56;8.48;;;3.25;;
67861;SDS011;54665;51.462;6.698;2023-04-03T02:19:22;6.60;;;2.87;;
67861;SDS011;54665;51.462;6.698;2023-04-03T02:21:48;9.03;;;3.20;;
67861;SDS011;54665;51.462;6.698;2023-04-03T02:24:14;9.77;;;2.92;;
67861;SDS011;54665;51.462;6.698;2023-04-03T02:26:39;8.43;;;3.30;;
67861;SDS011;54665;51.462;6.698;2023-04-03T02:29:05;7.90;;;3.08;;
67861;SDS011;54665;51.462;6.698;2023-04-03T02:31:30;6.63;;;2.77;;
67861;SDS011;54665;51.462;6.698;2023-04-03T02:33:58;6.22;;;2.95;;
67861;SDS011;54665;51.462;6.698;2023-04-03T02:36:24;6.53;;;2.87;;
67861;SDS011;54665;51.462;6.698;2023-04-03T02:38:53;7.32;;;2.60;;
67861;SDS011;54665;51.462;6.698;2023-04-03T02:41:19;9.77;;;2.70;;
67861;SDS011;54665;51.462;6.698;2023-04-03T02:43:46;6.00;;;2.53;;
67861;SDS011;54665;51.462;6.698;2023-04-03T02:46:11;7.43;;;2.60;;
67861;SDS011;54665;51.462;6.698;2023-04-03T02:48:39;7.53;;;2.45;;
67861;SDS011;54665;51.462;6.698;2023-04-03T02:51:05;6.03;;;2.43;;
67861;SDS011;54665;51.462;6.698;2023-04-03T02:53:30;8.02;;;2.53;;
67861;SDS011;54665;51.462;6.698;2023-04-03T02:55:57;5.65;;;2.33;;
67861;SDS011;54665;51.462;6.698;2023-04-03T02:58:23;5.77;;;2.13;;
67861;SDS011;54665;51.462;6.698;2023-04-03T03:00:51;6.60;;;2.10;;
67861;SDS011;54665;51.462;6.698;2023-04-03T03:03:16;5.87;;;2.13;;
67861;SDS011;54665;51.462;6.698;2023-04-03T03:05:42;4.80;;;1.50;;
67861;SDS011;54665;51.462;6.698;2023-04-03T03:08:07;5.57;;;1.80;;
67861;SDS011;54665;51.462;6.698;2023-04-03T03:10:32;6.40;;;2.00;;
67861;SDS011;54665;51.462;6.698;2023-04-03T03:12:58;5.53;;;2.03;;
67861;SDS011;54665;51.462;6.698;2023-04-03T03:15:23;4.17;;;1.60;;
67861;SDS011;54665;51.462;6.698;2023-04-03T03:17:49;4.97;;;1.60;;
67861;SDS011;54665;51.462;6.698;2023-04-03T03:20:14;6.63;;;1.80;;
67861;SDS011;54665;51.462;6.698;2023-04-03T03:22:40;3.95;;;1.65;;
67861;SDS011;54665;51.462;6.698;2023-04-03T03:25:06;4.97;;;2.00;;
67861;SDS011;54665;51.462;6.698;2023-04-03T03:27:32;6.10;;;2.17;;
67861;SDS011;54665;51.462;6.698;2023-04-03T03:29:57;4.13;;;1.67;;
67861;SDS011;54665;51.462;6.698;2023-04-03T03:32:23;4.40;;;1.50;;
67861;SDS011;54665;51.462;6.698;2023-04-03T03:34:48;5.73;;;2.00;;
67861;SDS011;54665;51.462;6.698;2023-04-03T03:37:13;6.47;;;1.87;;
67861;SDS011;54665;51.462;6.698;2023-04-03T03:39:39;6.30;;;1.90;;
67861;SDS011;54665;51.462;6.698;2023-04-03T03:42:04;3.90;;;1.50;;
67861;SDS011;54665;51.462;6.698;2023-04-03T03:44:30;7.30;;;1.83;;
67861;SDS011;54665;51.462;6.698;2023-04-03T03:46:55;8.60;;;1.67;;
67861;SDS011;54665;51.462;6.698;2023-04-03T03:49:21;5.30;;;1.47;;
67861;SDS011;54665;51.462;6.698;2023-04-03T03:51:47;6.18;;;1.50;;
67861;SDS011;54665;51.462;6.698;2023-04-03T03:54:12;3.93;;;1.67;;
67861;SDS011;54665;51.462;6.698;2023-04-03T03:56:38;8.00;;;1.88;;
67861;SDS011;54665;51.462;6.698;2023-04-03T03:59:04;5.85;;;1.35;;
67861;SDS011;54665;51.462;6.698;2023-04-03T04:01:30;8.27;;;1.50;;
67861;SDS011;54665;51.462;6.698;2023-04-03T04:03:56;7.60;;;1.63;;
67861;SDS011;54665;51.462;6.698;2023-04-03T04:06:25;5.57;;;1.50;;
67861;SDS011;54665;51.462;6.698;2023-04-03T04:08:55;4.50;;;0.87;;
67861;SDS011;54665;51.462;6.698;2023-04-03T04:11:21;7.85;;;1.80;;
67861;SDS011;54665;51.462;6.698;2023-04-03T04:13:47;5.50;;;1.35;;
67861;SDS011;54665;51.462;6.698;2023-04-03T04:16:14;6.83;;;1.80;;
67861;SDS011;54665;51.462;6.698;2023-04-03T04:18:40;6.33;;;1.40;;
67861;SDS011;54665;51.462;6.698;2023-04-03T04:21:05;7.07;;;1.70;;
67861;SDS011;54665;51.462;6.698;2023-04-03T04:23:31;5.27;;;1.63;;
67861;SDS011;54665;51.462;6.698;2023-04-03T04:25:58;7.03;;;1.52;;
67861;SDS011;54665;51.462;6.698;2023-04-03T04:28:25;6.32;;;1.60;;
67861;SDS011;54665;51.462;6.698;2023-04-03T04:30:53;5.78;;;1.80;;
67861;SDS011;54665;51.462;6.698;2023-04-03T04:33:21;4.30;;;1.15;;
67861;SDS011;54665;51.462;6.698;2023-04-03T04:35:47;4.50;;;1.33;;
67861;SDS011;54665;51.462;6.698;2023-04-03T04:38:13;5.80;;;1.60;;
67861;SDS011;54665;51.462;6.698;2023-04-03T04:40:39;8.50;;;2.30;;
67861;SDS011;54665;51.462;6.698;2023-04-03T04:43:06;25.80;;;7.13;;
67861;SDS011;54665;51.462;6.698;2023-04-03T04:45:32;9.75;;;2.28;;
67861;SDS011;54665;51.462;6.698;2023-04-03T04:47:58;7.15;;;2.00;;
67861;SDS011;54665;51.462;6.698;2023-04-03T04:50:24;8.65;;;2.70;;
67861;SDS011;54665;51.462;6.698;2023-04-03T04:52:50;8.23;;;1.90;;
67861;SDS011;54665;51.462;6.698;2023-04-03T04:55:15;11.77;;;3.00;;
67861;SDS011;54665;51.462;6.698;2023-04-03T04:57:41;14.47;;;3.77;;
67861;SDS011;54665;51.462;6.698;2023-04-03T05:00:06;10.77;;;2.85;;
67861;SDS011;54665;51.462;6.698;2023-04-03T05:02:32;7.75;;;2.30;;
67861;SDS011;54665;51.462;6.698;2023-04-03T05:04:58;7.83;;;1.80;;
67861;SDS011;54665;51.462;6.698;2023-04-03T05:07:27;9.02;;;2.38;;
67861;SDS011;54665;51.462;6.698;2023-04-03T05:09:52;6.37;;;2.23;;
67861;SDS011;54665;51.462;6.698;2023-04-03T05:12:18;8.13;;;1.92;;
67861;SDS011;54665;51.462;6.698;2023-04-03T05:14:50;15.43;;;4.97;;
67861;SDS011;54665;51.462;6.698;2023-04-03T05:17:16;11.77;;;2.28;;
67861;SDS011;54665;51.462;6.698;2023-04-03T05:19:47;3.87;;;1.30;;
67861;SDS011;54665;51.462;6.698;2023-04-03T05:22:13;5.97;;;1.77;;
67861;SDS011;54665;51.462;6.698;2023-04-03T05:24:38;6.90;;;2.37;;
67861;SDS011;54665;51.462;6.698;2023-04-03T05:27:05;6.03;;;2.00;;
67861;SDS011;54665;51.462;6.698;2023-04-03T05:29:34;7.45;;;1.90;;
67861;SDS011;54665;51.462;6.698;2023-04-03T05:32:01;11.40;;;3.55;;
67861;SDS011;54665;51.462;6.698;2023-04-03T05:34:26;6.43;;;2.10;;
67861;SDS011;54665;51.462;6.698;2023-04-03T05:36:54;5.38;;;1.42;;
67861;SDS011;54665;51.462;6.698;2023-04-03T05:39:20;9.93;;;2.10;;
67861;SDS011;54665;51.462;6.698;2023-04-03T05:41:46;8.97;;;2.47;;
67861;SDS011;54665;51.462;6.698;2023-04-03T05:44:12;5.68;;;2.28;;
67861;SDS011;54665;51.462;6.698;2023-04-03T05:46:38;9.70;;;2.53;;
67861;SDS011;54665;51.462;6.698;2023-04-03T05:49:05;8.88;;;2.28;;
67861;SDS011;54665;51.462;6.698;2023-04-03T05:51:34;6.95;;;1.90;;
67861;SDS011;54665;51.462;6.698;2023-04-03T05:54:24;4.25;;;1.65;;
67861;SDS011;54665;51.462;6.698;2023-04-03T05:56:57;6.13;;;2.23;;
67861;SDS011;54665;51.462;6.698;2023-04-03T05:59:23;7.68;;;2.47;;
67861;SDS011;54665;51.462;6.698;2023-04-03T06:01:51;6.35;;;1.60;;
67861;SDS011;54665;51.462;6.698;2023-04-03T06:04:17;9.60;;;3.15;;
67861;SDS011;54665;51.462;6.698;2023-04-03T06:06:45;6.78;;;1.83;;
67861;SDS011;54665;51.462;6.698;2023-04-03T06:09:12;10.60;;;2.67;;
67861;SDS011;54665;51.462;6.698;2023-04-03T06:11:38;5.13;;;2.00;;
67861;SDS011;54665;51.462;6.698;2023-04-03T06:14:04;6.63;;;2.13;;
67861;SDS011;54665;51.462;6.698;2023-04-03T06:16:29;5.10;;;1.60;;
67861;SDS011;54665;51.462;6.698;2023-04-03T06:18:55;7.00;;;2.17;;
67861;SDS011;54665;51.462;6.698;2023-04-03T06:21:21;5.05;;;1.65;;
67861;SDS011;54665;51.462;6.698;2023-04-03T06:23:46;5.37;;;1.57;;
67861;SDS011;54665;51.462;6.698;2023-04-03T06:26:12;6.47;;;1.53;;
67861;SDS011;54665;51.462;6.698;2023-04-03T06:28:37;8.00;;;1.80;;
67861;SDS011;54665;51.462;6.698;2023-04-03T06:31:02;6.07;;;1.40;;
67861;SDS011;54665;51.462;6.698;2023-04-03T06:33:28;6.70;;;1.60;;
67861;SDS011;54665;51.462;6.698;2023-04-03T06:35:57;13.47;;;3.60;;
67861;SDS011;54665;51.462;6.698;2023-04-03T06:38:23;6.75;;;1.48;;
67861;SDS011;54665;51.462;6.698;2023-04-03T06:40:48;4.30;;;1.53;;
67861;SDS011;54665;51.462;6.698;2023-04-03T06:43:14;7.13;;;1.70;;
67861;SDS011;54665;51.462;6.698;2023-04-03T06:45:39;9.50;;;2.00;;
67861;SDS011;54665;51.462;6.698;2023-04-03T06:48:05;5.77;;;1.93;;
67861;SDS011;54665;51.462;6.698;2023-04-03T06:50:31;6.43;;;2.15;;
67861;SDS011;54665;51.462;6.698;2023-04-03T06:52:56;7.13;;;2.13;;
67861;SDS011;54665;51.462;6.698;2023-04-03T06:55:22;4.10;;;1.33;;
67861;SDS011;54665;51.462;6.698;2023-04-03T06:57:47;8.97;;;2.90;;
67861;SDS011;54665;51.462;6.698;2023-04-03T07:00:13;7.03;;;1.60;;
67861;SDS011;54665;51.462;6.698;2023-04-03T07:02:39;6.33;;;1.63;;
67861;SDS011;54665;51.462;6.698;2023-04-03T07:05:05;7.43;;;1.65;;
67861;SDS011;54665;51.462;6.698;2023-04-03T07:07:31;13.70;;;3.30;;
67861;SDS011;54665;51.462;6.698;2023-04-03T07:09:58;5.90;;;1.90;;
67861;SDS011;54665;51.462;6.698;2023-04-03T07:12:23;9.47;;;1.87;;
67861;SDS011;54665;51.462;6.698;2023-04-03T07:14:48;5.95;;;1.58;;
67861;SDS011;54665;51.462;6.698;2023-04-03T07:17:14;8.60;;;3.13;;
67861;SDS011;54665;51.462;6.698;2023-04-03T07:19:39;8.47;;;2.20;;
67861;SDS011;54665;51.462;6.698;2023-04-03T07:22:05;20.57;;;7.87;;
67861;SDS011;54665;51.462;6.698;2023-04-03T07:24:30;17.63;;;5.73;;
67861;SDS011;54665;51.462;6.698;2023-04-03T07:26:55;6.57;;;1.88;;
67861;SDS011;54665;51.462;6.698;2023-04-03T07:29:21;7.83;;;2.17;;
67861;SDS011;54665;51.462;6.698;2023-04-03T07:31:46;4.63;;;1.60;;
67861;SDS011;54665;51.462;6.698;2023-04-03T07:34:12;5.95;;;1.50;;
67861;SDS011;54665;51.462;6.698;2023-04-03T07:36:39;5.50;;;1.48;;
67861;SDS011;54665;51.462;6.698;2023-04-03T07:39:04;9.73;;;2.90;;
67861;SDS011;54665;51.462;6.698;2023-04-03T07:41:31;4.45;;;1.23;;
67861;SDS011;54665;51.462;6.698;2023-04-03T07:43:57;6.80;;;1.90;;
67861;SDS011;54665;51.462;6.698;2023-04-03T07:46:23;7.75;;;1.65;;
67861;SDS011;54665;51.462;6.698;2023-04-03T07:48:49;10.87;;;4.30;;
67861;SDS011;54665;51.462;6.698;2023-04-03T07:51:14;11.23;;;4.80;;
67861;SDS011;54665;51.462;6.698;2023-04-03T07:53:40;7.00;;;2.28;;
67861;SDS011;54665;51.462;6.698;2023-04-03T07:56:06;6.07;;;1.73;;
67861;SDS011;54665;51.462;6.698;2023-04-03T07:58:32;4.75;;;1.60;;
67861;SDS011;54665;51.462;6.698;2023-04-03T08:00:58;5.57;;;1.70;;
67861;SDS011;54665;51.462;6.698;2023-04-03T08:03:23;6.30;;;1.67;;
67861;SDS011;54665;51.462;6.698;2023-04-03T08:05:49;6.20;;;1.20;;
67861;SDS011;54665;51.462;6.698;2023-04-03T08:08:16;3.60;;;1.30;;
67861;SDS011;54665;51.462;6.698;2023-04-03T08:10:43;4.55;;;1.30;;
67861;SDS011;54665;51.462;6.698;2023-04-03T08:13:12;4.13;;;1.10;;
67861;SDS011;54665;51.462;6.698;2023-04-03T08:15:38;3.90;;;1.30;;
67861;SDS011;54665;51.462;6.698;2023-04-03T08:18:03;6.47;;;1.33;;
67861;SDS011;54665;51.462;6.698;2023-04-03T08:20:29;5.05;;;1.80;;
67861;SDS011;54665;51.462;6.698;2023-04-03T08:22:54;4.27;;;1.37;;
67861;SDS011;54665;51.462;6.698;2023-04-03T08:25:20;3.40;;;1.20;;
67861;SDS011;54665;51.462;6.698;2023-04-03T08:27:46;3.03;;;1.13;;
67861;SDS011;54665;51.462;6.698;2023-04-03T08:30:11;3.90;;;1.27;;
67861;SDS011;54665;51.462;6.698;2023-04-03T08:32:37;3.33;;;0.90;;
67861;SDS011;54665;51.462;6.698;2023-04-03T08:35:03;5.05;;;1.10;;
67861;SDS011;54665;51.462;6.698;2023-04-03T08:37:30;4.30;;;1.00;;
67861;SDS011;54665;51.462;6.698;2023-04-03T08:39:55;2.63;;;1.10;;
67861;SDS011;54665;51.462;6.698;2023-04-03T08:45:08;3.42;;;1.08;;
67861;SDS011;54665;51.462;6.698;2023-04-03T08:50:07;4.43;;;1.40;;
67861;SDS011;54665;51.462;6.698;2023-04-03T08:52:38;5.50;;;1.30;;
67861;SDS011;54665;51.462;6.698;2023-04-03T08:57:42;3.38;;;1.00;;
67861;SDS011;54665;51.462;6.698;2023-04-03T09:00:19;3.28;;;1.08;;
67861;SDS011;54665;51.462;6.698;2023-04-03T09:02:48;5.28;;;1.10;;
67861;SDS011;54665;51.462;6.698;2023-04-03T09:05:48;1.97;;;0.70;;
67861;SDS011;54665;51.462;6.698;2023-04-03T09:08:18;2.58;;;0.90;;
67861;SDS011;54665;51.462;6.698;2023-04-03T09:11:05;3.05;;;0.80;;
67861;SDS011;54665;51.462;6.698;2023-04-03T09:16:41;2.00;;;0.75;;
67861;SDS011;54665;51.462;6.698;2023-04-03T09:21:56;2.40;;;0.70;;
67861;SDS011;54665;51.462;6.698;2023-04-03T09:24:22;1.85;;;0.77;;
67861;SDS011;54665;51.462;6.698;2023-04-03T09:26:56;2.35;;;0.65;;
67861;SDS011;54665;51.462;6.698;2023-04-03T09:29:28;3.63;;;0.93;;
67861;SDS011;54665;51.462;6.698;2023-04-03T09:32:12;2.93;;;0.90;;
67861;SDS011;54665;51.462;6.698;2023-04-03T09:34:46;3.33;;;0.90;;
67861;SDS011;54665;51.462;6.698;2023-04-03T09:37:33;3.15;;;0.80;;
67861;SDS011;54665;51.462;6.698;2023-04-03T09:40:05;3.53;;;0.80;;
67861;SDS011;54665;51.462;6.698;2023-04-03T09:42:31;2.97;;;0.90;;
67861;SDS011;54665;51.462;6.698;2023-04-03T09:44:58;3.13;;;0.70;;
67861;SDS011;54665;51.462;6.698;2023-04-03T09:47:33;4.32;;;1.30;;
67861;SDS011;54665;51.462;6.698;2023-04-03T09:52:44;3.53;;;0.80;;
67861;SDS011;54665;51.462;6.698;2023-04-03T09:57:41;3.90;;;0.90;;
67861;SDS011;54665;51.462;6.698;2023-04-03T10:00:20;1.70;;;0.60;;
67861;SDS011;54665;51.462;6.698;2023-04-03T10:02:49;3.10;;;0.80;;
67861;SDS011;54665;51.462;6.698;2023-04-03T10:05:31;2.92;;;0.70;;
67861;SDS011;54665;51.462;6.698;2023-04-03T10:10:45;2.58;;;0.52;;
67861;SDS011;54665;51.462;6.698;2023-04-03T10:13:14;2.95;;;0.50;;
67861;SDS011;54665;51.462;6.698;2023-04-03T10:15:49;2.10;;;0.40;;
67861;SDS011;54665;51.462;6.698;2023-04-03T10:20:59;4.30;;;1.40;;
67861;SDS011;54665;51.462;6.698;2023-04-03T10:23:40;1.80;;;0.47;;
67861;SDS011;54665;51.462;6.698;2023-04-03T10:34:24;2.08;;;0.80;;
67861;SDS011;54665;51.462;6.698;2023-04-03T10:37:04;3.20;;;0.77;;
67861;SDS011;54665;51.462;6.698;2023-04-03T10:39:45;2.00;;;0.60;;
67861;SDS011;54665;51.462;6.698;2023-04-03T10:42:16;1.63;;;0.40;;
67861;SDS011;54665;51.462;6.698;2023-04-03T10:45:15;3.53;;;0.43;;
67861;SDS011;54665;51.462;6.698;2023-04-03T10:47:49;1.85;;;0.40;;
67861;SDS011;54665;51.462;6.698;2023-04-03T10:50:48;2.63;;;0.50;;
67861;SDS011;54665;51.462;6.698;2023-04-03T10:56:07;1.33;;;0.50;;
67861;SDS011;54665;51.462;6.698;2023-04-03T10:58:44;4.28;;;0.60;;
67861;SDS011;54665;51.462;6.698;2023-04-03T11:01:18;2.75;;;0.80;;
67861;SDS011;54665;51.462;6.698;2023-04-03T11:03:49;2.28;;;0.50;;
67861;SDS011;54665;51.462;6.698;2023-04-03T11:06:18;2.70;;;0.77;;
67861;SDS011;54665;51.462;6.698;2023-04-03T11:08:50;3.33;;;0.63;;
67861;SDS011;54665;51.462;6.698;2023-04-03T11:11:26;3.78;;;1.40;;
67861;SDS011;54665;51.462;6.698;2023-04-03T11:13:56;2.40;;;0.80;;
67861;SDS011;54665;51.462;6.698;2023-04-03T11:16:31;2.28;;;0.70;;
67861;SDS011;54665;51.462;6.698;2023-04-03T11:19:03;1.67;;;0.57;;
67861;SDS011;54665;51.462;6.698;2023-04-03T11:21:40;3.60;;;1.17;;
67861;SDS011;54665;51.462;6.698;2023-04-03T11:24:16;5.95;;;1.70;;
67861;SDS011;54665;51.462;6.698;2023-04-03T11:26:47;3.88;;;1.60;;
67861;SDS011;54665;51.462;6.698;2023-04-03T11:29:18;3.63;;;1.13;;
67861;SDS011;54665;51.462;6.698;2023-04-03T11:37:01;2.20;;;0.95;;
67861;SDS011;54665;51.462;6.698;2023-04-03T11:39:36;2.10;;;0.70;;
67861;SDS011;54665;51.462;6.698;2023-04-03T11:44:39;3.00;;;0.75;;
67861;SDS011;54665;51.462;6.698;2023-04-03T11:47:05;6.07;;;1.90;;
67861;SDS011;54665;51.462;6.698;2023-04-03T11:49:52;4.80;;;0.85;;
67861;SDS011;54665;51.462;6.698;2023-04-03T11:55:35;3.40;;;0.90;;
67861;SDS011;54665;51.462;6.698;2023-04-03T12:16:19;3.17;;;0.88;;
67861;SDS011;54665;51.462;6.698;2023-04-03T12:21:20;1.30;;;0.60;;
67861;SDS011;54665;51.462;6.698;2023-04-03T12:26:32;2.55;;;0.70;;
67861;SDS011;54665;51.462;6.698;2023-04-03T12:40:01;2.10;;;0.60;;
67861;SDS011;54665;51.462;6.698;2023-04-03T12:42:40;1.80;;;0.60;;
67861;SDS011;54665;51.462;6.698;2023-04-03T12:45:12;2.80;;;0.90;;
67861;SDS011;54665;51.462;6.698;2023-04-03T12:47:43;2.00;;;0.80;;
67861;SDS011;54665;51.462;6.698;2023-04-03T12:50:20;1.30;;;0.60;;
67861;SDS011;54665;51.462;6.698;2023-04-03T12:52:54;2.65;;;0.70;;
67861;SDS011;54665;51.462;6.698;2023-04-03T12:55:24;1.73;;;0.60;;
67861;SDS011;54665;51.462;6.698;2023-04-03T12:57:51;3.78;;;0.70;;
67861;SDS011;54665;51.462;6.698;2023-04-03T13:00:30;2.77;;;0.70;;
67861;SDS011;54665;51.462;6.698;2023-04-03T13:03:03;2.42;;;0.70;;
67861;SDS011;54665;51.462;6.698;2023-04-03T13:05:31;2.92;;;0.80;;
67861;SDS011;54665;51.462;6.698;2023-04-03T13:07:59;2.25;;;0.70;;
67861;SDS011;54665;51.462;6.698;2023-04-03T13:10:30;1.90;;;0.50;;
67861;SDS011;54665;51.462;6.698;2023-04-03T13:12:58;6.28;;;1.10;;
67861;SDS011;54665;51.462;6.698;2023-04-03T13:15:45;2.28;;;0.75;;
67861;SDS011;54665;51.462;6.698;2023-04-03T13:21:17;2.78;;;0.82;;
67861;SDS011;54665;51.462;6.698;2023-04-03T13:23:47;4.03;;;0.80;;
67861;SDS011;54665;51.462;6.698;2023-04-03T13:26:15;1.77;;;0.70;;
67861;SDS011;54665;51.462;6.698;2023-04-03T13:28:42;2.95;;;0.80;;
67861;SDS011;54665;51.462;6.698;2023-04-03T13:33:39;2.40;;;0.75;;
67861;SDS011;54665;51.462;6.698;2023-04-03T13:36:18;1.50;;;0.67;;
67861;SDS011;54665;51.462;6.698;2023-04-03T13:38:46;1.40;;;0.60;;
67861;SDS011;54665;51.462;6.698;2023-04-03T13:41:31;2.40;;;0.80;;
67861;SDS011;54665;51.462;6.698;2023-04-03T13:46:46;2.55;;;0.70;;
67861;SDS011;54665;51.462;6.698;2023-04-03T13:49:18;2.13;;;0.60;;
67861;SDS011;54665;51.462;6.698;2023-04-03T13:51:46;2.25;;;0.80;;
67861;SDS011;54665;51.462;6.698;2023-04-03T13:54:17;3.30;;;0.80;;
67861;SDS011;54665;51.462;6.698;2023-04-03T13:56:46;2.78;;;0.70;;
67861;SDS011;54665;51.462;6.698;2023-04-03T14:04:16;1.97;;;0.83;;
67861;SDS011;54665;51.462;6.698;2023-04-03T14:06:43;2.20;;;0.57;;
67861;SDS011;54665;51.462;6.698;2023-04-03T14:09:09;3.27;;;0.80;;
67861;SDS011;54665;51.462;6.698;2023-04-03T14:11:35;2.65;;;0.80;;
67861;SDS011;54665;51.462;6.698;2023-04-03T14:14:01;2.93;;;0.80;;
67861;SDS011;54665;51.462;6.698;2023-04-03T14:16:31;2.47;;;0.52;;
67861;SDS011;54665;51.462;6.698;2023-04-03T14:19:02;2.85;;;0.60;;
67861;SDS011;54665;51.462;6.698;2023-04-03T14:21:28;2.53;;;0.80;;
67861;SDS011;54665;51.462;6.698;2023-04-03T14:23:53;12.30;;;4.83;;
67861;SDS011;54665;51.462;6.698;2023-04-03T14:26:20;3.40;;;1.03;;
67861;SDS011;54665;51.462;6.698;2023-04-03T14:28:48;2.63;;;0.90;;
67861;SDS011;54665;51.462;6.698;2023-04-03T14:31:15;3.40;;;0.90;;
67861;SDS011;54665;51.462;6.698;2023-04-03T14:33:41;2.57;;;0.80;;
67861;SDS011;54665;51.462;6.698;2023-04-03T14:36:25;3.72;;;1.08;;
67861;SDS011;54665;51.462;6.698;2023-04-03T14:38:52;2.20;;;0.70;;
67861;SDS011;54665;51.462;6.698;2023-04-03T14:41:19;2.85;;;0.65;;
67861;SDS011;54665;51.462;6.698;2023-04-03T14:43:46;1.83;;;0.65;;
67861;SDS011;54665;51.462;6.698;2023-04-03T14:46:13;3.60;;;0.80;;
67861;SDS011;54665;51.462;6.698;2023-04-03T14:48:44;3.40;;;1.20;;
67861;SDS011;54665;51.462;6.698;2023-04-03T14:51:11;3.72;;;0.57;;
67861;SDS011;54665;51.462;6.698;2023-04-03T14:53:38;2.25;;;0.75;;
67861;SDS011;54665;51.462;6.698;2023-04-03T14:56:37;3.13;;;0.60;;
67861;SDS011;54665;51.462;6.698;2023-04-03T14:58:57;2.60;;;0.70;;
67861;SDS011;54665;51.462;6.698;2023-04-03T15:01:25;2.92;;;0.90;;
67861;SDS011;54665;51.462;6.698;2023-04-03T15:03:51;2.90;;;0.70;;
67861;SDS011;54665;51.462;6.698;2023-04-03T15:06:17;2.30;;;0.63;;
67861;SDS011;54665;51.462;6.698;2023-04-03T15:08:43;2.83;;;0.80;;
67861;SDS011;54665;51.462;6.698;2023-04-03T15:11:10;5.32;;;2.08;;
67861;SDS011;54665;51.462;6.698;2023-04-03T15:13:36;1.88;;;0.70;;
67861;SDS011;54665;51.462;6.698;2023-04-03T15:16:03;3.83;;;0.97;;
67861;SDS011;54665;51.462;6.698;2023-04-03T15:18:31;5.35;;;0.80;;
67861;SDS011;54665;51.462;6.698;2023-04-03T15:21:01;4.47;;;1.00;;
67861;SDS011;54665;51.462;6.698;2023-04-03T15:23:27;3.27;;;0.70;;
67861;SDS011;54665;51.462;6.698;2023-04-03T15:25:55;2.70;;;0.88;;
67861;SDS011;54665;51.462;6.698;2023-04-03T15:28:31;2.72;;;0.70;;
67861;SDS011;54665;51.462;6.698;2023-04-03T15:30:58;3.65;;;0.80;;
67861;SDS011;54665;51.462;6.698;2023-04-03T15:33:25;1.43;;;0.83;;
67861;SDS011;54665;51.462;6.698;2023-04-03T15:35:51;4.30;;;0.90;;
67861;SDS011;54665;51.462;6.698;2023-04-03T15:38:16;2.50;;;0.80;;
67861;SDS011;54665;51.462;6.698;2023-04-03T15:40:41;2.60;;;1.00;;
67861;SDS011;54665;51.462;6.698;2023-04-03T15:43:08;2.38;;;0.70;;
67861;SDS011;54665;51.462;6.698;2023-04-03T15:45:35;2.30;;;0.90;;
67861;SDS011;54665;51.462;6.698;2023-04-03T15:48:02;1.83;;;0.88;;
67861;SDS011;54665;51.462;6.698;2023-04-03T15:50:28;3.90;;;1.20;;
67861;SDS011;54665;51.462;6.698;2023-04-03T15:52:54;2.67;;;1.13;;
67861;SDS011;54665;51.462;6.698;2023-04-03T15:55:30;4.83;;;1.10;;
67861;SDS011;54665;51.462;6.698;2023-04-03T15:57:57;2.38;;;1.02;;
67861;SDS011;54665;51.462;6.698;2023-04-03T16:00:23;2.92;;;1.00;;
67861;SDS011;54665;51.462;6.698;2023-04-03T16:02:51;3.15;;;0.90;;
67861;SDS011;54665;51.462;6.698;2023-04-03T16:05:19;3.40;;;1.00;;
67861;SDS011;54665;51.462;6.698;2023-04-03T16:07:45;3.33;;;0.80;;
67861;SDS011;54665;51.462;6.698;2023-04-03T16:10:11;3.53;;;1.00;;
67861;SDS011;54665;51.462;6.698;2023-04-03T16:12:37;2.97;;;0.90;;
67861;SDS011;54665;51.462;6.698;2023-04-03T16:15:03;2.30;;;0.90;;
67861;SDS011;54665;51.462;6.698;2023-04-03T16:17:31;2.65;;;1.00;;
67861;SDS011;54665;51.462;6.698;2023-04-03T16:19:58;3.73;;;1.10;;
67861;SDS011;54665;51.462;6.698;2023-04-03T16:22:24;3.33;;;1.23;;
67861;SDS011;54665;51.462;6.698;2023-04-03T16:24:51;3.15;;;1.20;;
67861;SDS011;54665;51.462;6.698;2023-04-03T16:27:16;3.27;;;1.10;;
67861;SDS011;54665;51.462;6.698;2023-04-03T16:29:42;2.07;;;0.87;;
67861;SDS011;54665;51.462;6.698;2023-04-03T16:32:07;3.80;;;1.00;;
67861;SDS011;54665;51.462;6.698;2023-04-03T16:34:33;3.95;;;1.20;;